createdAt,value
2023-03-10T00:00:28.056Z,11.70
2023-03-10T00:01:00.540Z,13.20
2023-03-10T00:01:32.997Z,12.80
2023-03-10T00:02:05.526Z,12.20
2023-03-10T00:02:38.043Z,12.60
2023-03-10T00:03:10.593Z,13.10
2023-03-10T00:03:43.084Z,13.10
2023-03-10T00:04:15.632Z,13.40
2023-03-10T00:04:48.063Z,14.00
2023-03-10T00:05:20.572Z,13.20
2023-03-10T00:05:53.040Z,12.20
2023-03-10T00:06:25.495Z,12.10
2023-03-10T00:06:58.014Z,12.20
2023-03-10T00:07:30.495Z,12.80
2023-03-10T00:08:03.043Z,13.30
2023-03-10T00:08:35.496Z,12.50
2023-03-10T00:09:07.976Z,13.10
2023-03-10T00:09:40.479Z,13.40
2023-03-10T00:10:12.954Z,13.20
2023-03-10T00:10:45.470Z,14.20
2023-03-10T00:11:17.937Z,13.90
2023-03-10T00:11:50.422Z,12.90
2023-03-10T00:12:22.917Z,11.20
2023-03-10T00:12:55.388Z,12.40
2023-03-10T00:13:27.970Z,13.80
2023-03-10T00:14:00.442Z,13.70
2023-03-10T00:14:32.988Z,12.80
2023-03-10T00:15:05.471Z,13.50
2023-03-10T00:15:38.052Z,14.40
2023-03-10T00:16:10.589Z,13.90
2023-03-10T00:16:42.945Z,14.20
2023-03-10T00:17:15.436Z,14.10
2023-03-10T00:17:47.910Z,13.20
2023-03-10T00:18:20.388Z,13.20
2023-03-10T00:18:52.924Z,13.70
2023-03-10T00:19:25.427Z,12.30
2023-03-10T00:19:57.892Z,12.60
2023-03-10T00:20:30.390Z,13.20
2023-03-10T00:21:02.911Z,12.80
2023-03-10T00:21:35.410Z,13.40
2023-03-10T00:22:07.927Z,14.00
2023-03-10T00:22:40.421Z,12.50
2023-03-10T00:23:12.909Z,12.40
2023-03-10T00:23:45.426Z,12.70
2023-03-10T00:24:17.869Z,13.30
2023-03-10T00:24:50.315Z,12.20
2023-03-10T00:25:22.766Z,12.70
2023-03-10T00:25:55.270Z,14.80
2023-03-10T00:26:27.711Z,14.20
2023-03-10T00:27:00.195Z,12.80
2023-03-10T00:27:32.710Z,11.10
2023-03-10T00:28:05.200Z,11.20
2023-03-10T00:28:37.699Z,13.00
2023-03-10T00:29:10.148Z,14.10
2023-03-10T00:29:42.616Z,12.70
2023-03-10T00:30:15.089Z,13.40
2023-03-10T00:30:47.561Z,14.10
2023-03-10T00:31:20.104Z,13.60
2023-03-10T00:31:52.535Z,12.80
2023-03-10T00:32:25.067Z,13.00
2023-03-10T00:32:57.505Z,13.00
2023-03-10T00:33:29.963Z,13.00
2023-03-10T00:34:02.439Z,13.00
2023-03-10T00:34:34.917Z,12.50
2023-03-10T00:35:07.388Z,12.40
2023-03-10T00:35:39.972Z,12.60
2023-03-10T00:36:12.420Z,12.60
2023-03-10T00:36:44.844Z,13.00
2023-03-10T00:37:17.420Z,13.20
2023-03-10T00:37:49.916Z,13.40
2023-03-10T00:38:22.371Z,13.20
2023-03-10T00:38:54.868Z,13.20
2023-03-10T00:39:27.341Z,13.00
2023-03-10T00:39:59.830Z,13.20
2023-03-10T00:40:32.305Z,13.00
2023-03-10T00:41:04.812Z,12.70
2023-03-10T00:41:37.375Z,12.00
2023-03-10T00:42:09.871Z,11.70
2023-03-10T00:42:42.324Z,13.10
2023-03-10T00:43:14.797Z,13.20
2023-03-10T00:43:47.249Z,12.10
2023-03-10T00:44:19.760Z,12.20
2023-03-10T00:44:52.210Z,12.90
2023-03-10T00:45:24.704Z,14.10
2023-03-10T00:45:57.213Z,13.10
2023-03-10T00:46:29.669Z,12.50
2023-03-10T00:47:02.105Z,11.80
2023-03-10T00:47:34.640Z,11.90
2023-03-10T00:48:07.079Z,11.90
2023-03-10T00:48:39.567Z,12.50
2023-03-10T00:49:12.013Z,12.20
2023-03-10T00:49:44.468Z,11.40
2023-03-10T00:50:16.980Z,11.10
2023-03-10T00:50:49.430Z,11.50
2023-03-10T00:51:21.931Z,12.90
2023-03-10T00:51:54.402Z,13.40
2023-03-10T00:52:26.873Z,12.90
2023-03-10T00:52:59.416Z,12.60
2023-03-10T00:53:31.886Z,13.60
2023-03-10T00:54:04.360Z,13.00
2023-03-10T00:54:36.828Z,11.90
2023-03-10T00:55:09.328Z,12.70
2023-03-10T00:55:41.783Z,12.40
2023-03-10T00:56:14.414Z,12.50
2023-03-10T00:56:46.912Z,12.60
2023-03-10T00:57:19.382Z,12.40
2023-03-10T00:57:51.857Z,12.50
2023-03-10T00:58:24.330Z,10.90
2023-03-10T00:58:56.773Z,11.80
2023-03-10T00:59:32.868Z,12.50
2023-03-10T01:00:01.777Z,12.10
2023-03-10T01:00:34.390Z,12.10
2023-03-10T01:01:06.886Z,12.20
2023-03-10T01:01:39.493Z,13.20
2023-03-10T01:02:11.851Z,13.10
2023-03-10T01:02:44.360Z,12.60
2023-03-10T01:03:16.814Z,12.80
2023-03-10T01:03:49.298Z,12.70
2023-03-10T01:04:21.778Z,12.20
2023-03-10T01:04:54.218Z,12.20
2023-03-10T01:05:26.668Z,13.00
2023-03-10T01:05:59.171Z,12.70
2023-03-10T01:06:31.631Z,11.90
2023-03-10T01:07:04.106Z,12.80
2023-03-10T01:07:36.793Z,12.60
2023-03-10T01:08:09.305Z,11.70
2023-03-10T01:08:41.815Z,11.60
2023-03-10T01:09:14.262Z,13.20
2023-03-10T01:09:46.764Z,13.00
2023-03-10T01:10:19.217Z,12.20
2023-03-10T01:10:51.688Z,11.90
2023-03-10T01:11:24.127Z,11.20
2023-03-10T01:11:56.589Z,11.20
2023-03-10T01:12:29.056Z,11.80
2023-03-10T01:13:01.510Z,12.30
2023-03-10T01:13:33.958Z,13.50
2023-03-10T01:14:06.471Z,13.40
2023-03-10T01:14:38.939Z,14.10
2023-03-10T01:15:11.420Z,13.70
2023-03-10T01:15:43.929Z,12.50
2023-03-10T01:16:16.442Z,12.40
2023-03-10T01:16:48.811Z,11.90
2023-03-10T01:17:21.267Z,11.90
2023-03-10T01:17:53.778Z,13.00
2023-03-10T01:18:26.292Z,12.80
2023-03-10T01:18:58.777Z,12.60
2023-03-10T01:19:31.261Z,12.80
2023-03-10T01:20:03.755Z,11.70
2023-03-10T01:20:36.231Z,11.90
2023-03-10T01:21:08.731Z,12.10
2023-03-10T01:21:41.234Z,14.10
2023-03-10T01:22:13.736Z,15.50
2023-03-10T01:22:46.261Z,13.50
2023-03-10T01:23:18.731Z,12.50
2023-03-10T01:23:51.192Z,12.10
2023-03-10T01:24:23.664Z,12.60
2023-03-10T01:24:56.145Z,12.70
2023-03-10T01:25:28.632Z,12.50
2023-03-10T01:26:01.143Z,12.50
2023-03-10T01:26:33.607Z,13.10
2023-03-10T01:27:06.065Z,12.20
2023-03-10T01:27:38.522Z,11.50
2023-03-10T01:28:10.990Z,11.30
2023-03-10T01:28:43.497Z,11.70
2023-03-10T01:29:16.083Z,11.90
2023-03-10T01:29:48.580Z,12.00
2023-03-10T01:30:21.059Z,13.30
2023-03-10T01:30:53.559Z,13.10
2023-03-10T01:31:25.987Z,12.10
2023-03-10T01:31:58.452Z,12.00
2023-03-10T01:32:30.935Z,12.30
2023-03-10T01:33:03.407Z,12.30
2023-03-10T01:33:35.886Z,12.90
2023-03-10T01:34:08.357Z,13.50
2023-03-10T01:34:40.839Z,12.20
2023-03-10T01:35:13.302Z,11.80
2023-03-10T01:35:45.783Z,12.80
2023-03-10T01:36:18.288Z,12.20
2023-03-10T01:36:50.692Z,11.40
2023-03-10T01:37:23.178Z,11.50
2023-03-10T01:37:55.647Z,11.90
2023-03-10T01:38:28.144Z,12.40
2023-03-10T01:39:00.655Z,12.00
2023-03-10T01:39:33.161Z,11.00
2023-03-10T01:40:05.644Z,12.10
2023-03-10T01:40:38.128Z,13.00
2023-03-10T01:41:10.654Z,12.60
2023-03-10T01:41:43.166Z,12.40
2023-03-10T01:42:15.688Z,12.50
2023-03-10T01:42:48.174Z,12.30
2023-03-10T01:43:20.677Z,11.90
2023-03-10T01:43:53.306Z,12.10
2023-03-10T01:44:25.778Z,11.90
2023-03-10T01:44:58.307Z,12.60
2023-03-10T01:45:30.776Z,12.70
2023-03-10T01:46:03.265Z,13.50
2023-03-10T01:46:35.791Z,15.10
2023-03-10T01:47:08.219Z,13.50
2023-03-10T01:47:40.725Z,11.50
2023-03-10T01:48:13.287Z,12.60
2023-03-10T01:48:45.791Z,12.10
2023-03-10T01:49:18.289Z,11.70
2023-03-10T01:49:50.782Z,12.30
2023-03-10T01:50:23.249Z,12.10
2023-03-10T01:50:55.770Z,13.00
2023-03-10T01:51:28.262Z,13.00
2023-03-10T01:52:00.791Z,12.70
2023-03-10T01:52:33.393Z,12.20
2023-03-10T01:53:05.869Z,12.60
2023-03-10T01:53:38.358Z,12.90
2023-03-10T01:54:10.855Z,12.50
2023-03-10T01:54:43.357Z,12.40
2023-03-10T01:55:15.815Z,11.70
2023-03-10T01:55:48.305Z,11.50
2023-03-10T01:56:20.794Z,12.20
2023-03-10T01:56:53.217Z,12.30
2023-03-10T01:57:25.668Z,12.00
2023-03-10T01:57:58.153Z,12.70
2023-03-10T01:58:30.614Z,12.60
2023-03-10T01:59:03.101Z,12.10
2023-03-10T01:59:35.634Z,13.20
2023-03-10T02:00:08.103Z,13.10
2023-03-10T02:00:40.610Z,11.00
2023-03-10T02:01:13.102Z,10.70
2023-03-10T02:01:45.555Z,11.70
2023-03-10T02:02:18.042Z,12.20
2023-03-10T02:02:50.473Z,12.20
2023-03-10T02:03:22.959Z,11.80
2023-03-10T02:03:55.498Z,12.40
2023-03-10T02:04:27.998Z,12.20
2023-03-10T02:05:00.471Z,12.00
2023-03-10T02:05:32.952Z,11.30
2023-03-10T02:06:05.422Z,10.90
2023-03-10T02:06:37.946Z,11.30
2023-03-10T02:07:10.447Z,11.60
2023-03-10T02:07:42.909Z,11.90
2023-03-10T02:08:15.399Z,12.30
2023-03-10T02:08:47.880Z,12.70
2023-03-10T02:09:20.347Z,12.60
2023-03-10T02:09:52.818Z,12.10
2023-03-10T02:10:25.306Z,12.50
2023-03-10T02:10:57.743Z,11.90
2023-03-10T02:11:30.240Z,10.70
2023-03-10T02:12:02.782Z,11.20
2023-03-10T02:12:35.252Z,11.50
2023-03-10T02:13:07.738Z,11.60
2023-03-10T02:13:40.225Z,11.10
2023-03-10T02:14:12.781Z,10.50
2023-03-10T02:14:45.254Z,9.40
2023-03-10T02:15:17.726Z,8.40
2023-03-10T02:15:50.212Z,8.30
2023-03-10T02:16:22.733Z,8.40
2023-03-10T02:16:55.302Z,9.20
2023-03-10T02:17:27.809Z,8.30
2023-03-10T02:18:00.250Z,7.80
2023-03-10T02:18:32.735Z,8.30
2023-03-10T02:19:05.234Z,8.60
2023-03-10T02:19:37.671Z,8.20
2023-03-10T02:20:10.140Z,7.90
2023-03-10T02:20:42.591Z,8.20
2023-03-10T02:21:15.101Z,8.40
2023-03-10T02:21:47.617Z,8.10
2023-03-10T02:22:20.083Z,7.50
2023-03-10T02:22:52.528Z,7.60
2023-03-10T02:23:25.044Z,8.30
2023-03-10T02:24:01.489Z,7.80
2023-03-10T02:24:30.006Z,7.90
2023-03-10T02:25:02.483Z,8.00
2023-03-10T02:25:34.947Z,7.10
2023-03-10T02:26:07.411Z,6.90
2023-03-10T02:26:39.850Z,6.90
2023-03-10T02:27:12.310Z,6.70
2023-03-10T02:27:44.762Z,6.30
2023-03-10T02:28:17.215Z,6.70
2023-03-10T02:28:49.691Z,7.20
2023-03-10T02:29:22.146Z,6.40
2023-03-10T02:29:59.135Z,6.40
2023-03-10T02:30:27.078Z,6.00
2023-03-10T02:30:59.522Z,6.20
2023-03-10T02:31:32.092Z,7.20
2023-03-10T02:32:04.572Z,6.50
2023-03-10T02:32:37.023Z,6.20
2023-03-10T02:33:09.532Z,6.80
2023-03-10T02:33:42.080Z,6.80
2023-03-10T02:34:14.535Z,6.20
2023-03-10T02:34:47.033Z,6.50
2023-03-10T02:35:19.470Z,6.20
2023-03-10T02:35:52.096Z,6.40
2023-03-10T02:36:24.458Z,7.10
2023-03-10T02:36:56.921Z,6.30
2023-03-10T02:37:29.390Z,6.30
2023-03-10T02:38:01.925Z,6.30
2023-03-10T02:38:34.382Z,6.40
2023-03-10T02:39:06.857Z,6.90
2023-03-10T02:39:39.294Z,7.00
2023-03-10T02:40:11.767Z,7.00
2023-03-10T02:40:44.236Z,6.40
2023-03-10T02:41:16.675Z,6.10
2023-03-10T02:41:49.115Z,6.10
2023-03-10T02:42:21.572Z,5.80
2023-03-10T02:42:54.047Z,6.00
2023-03-10T02:43:26.510Z,5.50
2023-03-10T02:43:59.021Z,5.90
2023-03-10T02:44:31.493Z,6.90
2023-03-10T02:45:04.017Z,6.30
2023-03-10T02:45:36.568Z,6.00
2023-03-10T02:46:09.076Z,6.50
2023-03-10T02:46:41.431Z,6.40
2023-03-10T02:47:13.892Z,5.70
2023-03-10T02:47:46.340Z,5.60
2023-03-10T02:48:18.854Z,5.90
2023-03-10T02:48:51.434Z,6.70
2023-03-10T02:49:23.911Z,6.50
2023-03-10T02:49:56.403Z,6.50
2023-03-10T02:50:28.878Z,6.30
2023-03-10T02:51:01.335Z,6.60
2023-03-10T02:51:33.800Z,7.00
2023-03-10T02:52:06.275Z,6.40
2023-03-10T02:52:38.774Z,6.30
2023-03-10T02:53:11.273Z,6.70
2023-03-10T02:53:43.778Z,6.90
2023-03-10T02:54:16.313Z,6.70
2023-03-10T02:54:48.771Z,5.90
2023-03-10T02:55:21.235Z,6.00
2023-03-10T02:55:53.706Z,6.50
2023-03-10T02:56:26.185Z,6.40
2023-03-10T02:56:58.656Z,5.60
2023-03-10T02:57:31.128Z,5.50
2023-03-10T02:58:03.596Z,6.50
2023-03-10T02:58:36.071Z,6.70
2023-03-10T02:59:08.556Z,6.80
2023-03-10T02:59:41.038Z,6.60
2023-03-10T03:00:13.507Z,5.70
2023-03-10T03:00:46.072Z,5.60
2023-03-10T03:01:18.588Z,5.90
2023-03-10T03:01:50.955Z,6.20
2023-03-10T03:02:23.429Z,6.10
2023-03-10T03:02:55.874Z,5.60
2023-03-10T03:03:28.359Z,5.80
2023-03-10T03:04:00.853Z,6.50
2023-03-10T03:04:33.281Z,6.90
2023-03-10T03:05:05.756Z,7.00
2023-03-10T03:05:38.307Z,7.00
2023-03-10T03:06:10.771Z,6.60
2023-03-10T03:06:43.237Z,6.40
2023-03-10T03:07:15.700Z,6.40
2023-03-10T03:07:48.169Z,6.30
2023-03-10T03:08:20.642Z,6.80
2023-03-10T03:08:53.227Z,6.60
2023-03-10T03:09:25.696Z,6.00
2023-03-10T03:09:58.139Z,5.80
2023-03-10T03:10:30.689Z,6.00
2023-03-10T03:11:03.126Z,6.80
2023-03-10T03:11:35.591Z,7.00
2023-03-10T03:12:08.049Z,6.60
2023-03-10T03:12:40.523Z,6.30
2023-03-10T03:13:13.032Z,6.30
2023-03-10T03:13:45.516Z,5.80
2023-03-10T03:14:19.519Z,6.20
2023-03-10T03:14:50.451Z,6.10
2023-03-10T03:15:22.930Z,6.20
2023-03-10T03:15:55.440Z,6.50
2023-03-10T03:16:27.934Z,7.20
2023-03-10T03:17:00.510Z,7.60
2023-03-10T03:17:32.803Z,6.70
2023-03-10T03:18:05.282Z,5.90
2023-03-10T03:18:37.750Z,6.00
2023-03-10T03:19:10.228Z,6.20
2023-03-10T03:19:42.754Z,6.70
2023-03-10T03:20:15.228Z,6.30
2023-03-10T03:20:47.678Z,6.10
2023-03-10T03:21:20.169Z,6.20
2023-03-10T03:21:52.647Z,6.30
2023-03-10T03:22:25.113Z,6.00
2023-03-10T03:22:57.615Z,6.00
2023-03-10T03:23:30.083Z,6.00
2023-03-10T03:24:02.541Z,6.20
2023-03-10T03:24:35.064Z,6.00
2023-03-10T03:25:07.524Z,6.10
2023-03-10T03:25:40.049Z,6.10
2023-03-10T03:26:12.561Z,6.00
2023-03-10T03:26:45.043Z,6.50
2023-03-10T03:27:17.655Z,6.70
2023-03-10T03:27:50.153Z,6.70
2023-03-10T03:28:22.700Z,6.50
2023-03-10T03:28:55.167Z,6.70
2023-03-10T03:29:27.688Z,6.60
2023-03-10T03:30:00.212Z,6.30
2023-03-10T03:30:34.149Z,6.70
2023-03-10T03:31:06.631Z,6.40
2023-03-10T03:31:39.120Z,6.80
2023-03-10T03:32:11.679Z,6.50
2023-03-10T03:32:44.038Z,6.20
2023-03-10T03:33:16.475Z,6.40
2023-03-10T03:33:48.935Z,6.70
2023-03-10T03:34:21.443Z,6.90
2023-03-10T03:34:53.892Z,6.90
2023-03-10T03:35:26.401Z,6.90
2023-03-10T03:35:58.868Z,7.00
2023-03-10T03:36:31.274Z,6.40
2023-03-10T03:37:03.742Z,5.90
2023-03-10T03:37:36.200Z,7.10
2023-03-10T03:38:08.696Z,7.20
2023-03-10T03:38:41.150Z,6.40
2023-03-10T03:39:13.690Z,6.80
2023-03-10T03:39:46.206Z,6.90
2023-03-10T03:40:18.574Z,6.40
2023-03-10T03:40:51.039Z,6.30
2023-03-10T03:41:23.483Z,6.50
2023-03-10T03:41:55.944Z,7.00
2023-03-10T03:42:28.449Z,6.60
2023-03-10T03:43:00.918Z,6.10
2023-03-10T03:43:33.375Z,6.80
2023-03-10T03:44:05.857Z,6.30
2023-03-10T03:44:38.339Z,6.40
2023-03-10T03:45:10.804Z,7.10
2023-03-10T03:45:43.304Z,7.10
2023-03-10T03:46:15.849Z,6.50
2023-03-10T03:46:48.191Z,5.80
2023-03-10T03:47:20.637Z,7.10
2023-03-10T03:47:53.105Z,7.10
2023-03-10T03:48:25.554Z,6.80
2023-03-10T03:48:58.009Z,7.00
2023-03-10T03:49:30.524Z,6.40
2023-03-10T03:50:02.967Z,5.80
2023-03-10T03:50:35.425Z,7.10
2023-03-10T03:51:07.922Z,7.20
2023-03-10T03:51:40.375Z,6.60
2023-03-10T03:52:12.856Z,6.60
2023-03-10T03:52:45.326Z,6.40
2023-03-10T03:53:17.780Z,6.30
2023-03-10T03:53:50.269Z,7.20
2023-03-10T03:54:22.790Z,7.30
2023-03-10T03:54:55.273Z,7.10
2023-03-10T03:55:27.727Z,6.90
2023-03-10T03:56:00.184Z,7.10
2023-03-10T03:56:32.672Z,6.80
2023-03-10T03:57:05.138Z,6.50
2023-03-10T03:57:37.602Z,6.90
2023-03-10T03:58:10.100Z,6.80
2023-03-10T03:58:42.598Z,6.70
2023-03-10T03:59:15.080Z,6.80
2023-03-10T03:59:47.558Z,6.40
2023-03-10T04:00:20.054Z,6.80
2023-03-10T04:00:52.496Z,6.90
2023-03-10T04:01:25.020Z,6.80
2023-03-10T04:01:57.563Z,7.30
2023-03-10T04:02:30.048Z,7.50
2023-03-10T04:03:02.425Z,6.80
2023-03-10T04:03:34.925Z,7.00
2023-03-10T04:04:07.388Z,7.20
2023-03-10T04:04:39.892Z,6.90
2023-03-10T04:05:12.379Z,6.90
2023-03-10T04:05:44.841Z,6.70
2023-03-10T04:06:17.311Z,6.00
2023-03-10T04:06:49.810Z,6.10
2023-03-10T04:07:22.309Z,6.10
2023-03-10T04:07:54.827Z,6.40
2023-03-10T04:08:27.276Z,6.90
2023-03-10T04:08:59.758Z,6.80
2023-03-10T04:09:32.263Z,7.00
2023-03-10T04:10:04.788Z,6.90
2023-03-10T04:10:37.206Z,7.30
2023-03-10T04:11:09.706Z,7.10
2023-03-10T04:11:42.173Z,6.80
2023-03-10T04:12:14.632Z,6.50
2023-03-10T04:12:47.103Z,6.20
2023-03-10T04:13:19.554Z,6.40
2023-03-10T04:13:52.060Z,7.30
2023-03-10T04:14:24.503Z,7.10
2023-03-10T04:14:56.977Z,6.80
2023-03-10T04:15:29.490Z,6.40
2023-03-10T04:16:01.991Z,7.60
2023-03-10T04:16:34.425Z,7.70
2023-03-10T04:17:06.901Z,6.80
2023-03-10T04:17:39.372Z,6.90
2023-03-10T04:18:11.919Z,7.10
2023-03-10T04:18:44.378Z,6.80
2023-03-10T04:19:16.851Z,7.10
2023-03-10T04:20:00.721Z,6.90
2023-03-10T04:20:21.784Z,7.50
2023-03-10T04:20:54.268Z,7.60
2023-03-10T04:21:26.722Z,7.20
2023-03-10T04:21:59.176Z,6.80
2023-03-10T04:22:31.620Z,7.50
2023-03-10T04:23:04.155Z,7.40
2023-03-10T04:23:36.614Z,7.50
2023-03-10T04:24:09.075Z,7.60
2023-03-10T04:24:41.520Z,7.30
2023-03-10T04:25:13.996Z,8.00
2023-03-10T04:25:46.454Z,7.60
2023-03-10T04:26:18.921Z,7.20
2023-03-10T04:26:51.378Z,7.60
2023-03-10T04:27:23.856Z,7.20
2023-03-10T04:27:56.309Z,7.10
2023-03-10T04:28:28.777Z,7.40
2023-03-10T04:29:01.244Z,7.40
2023-03-10T04:29:33.690Z,7.30
2023-03-10T04:30:06.153Z,7.50
2023-03-10T04:30:38.614Z,7.60
2023-03-10T04:31:11.144Z,7.50
2023-03-10T04:31:46.533Z,7.10
2023-03-10T04:32:16.060Z,7.50
2023-03-10T04:32:49.389Z,7.50
2023-03-10T04:33:20.952Z,7.40
2023-03-10T04:33:53.467Z,6.50
2023-03-10T04:34:25.919Z,6.80
2023-03-10T04:34:58.402Z,7.90
2023-03-10T04:35:30.852Z,8.20
2023-03-10T04:36:03.372Z,7.70
2023-03-10T04:36:35.774Z,7.30
2023-03-10T04:37:08.275Z,7.90
2023-03-10T04:37:40.735Z,8.40
2023-03-10T04:38:13.216Z,8.60
2023-03-10T04:38:45.682Z,8.00
2023-03-10T04:39:18.213Z,8.30
2023-03-10T04:39:50.718Z,8.00
2023-03-10T04:40:23.188Z,7.50
2023-03-10T04:40:55.645Z,7.60
2023-03-10T04:41:28.115Z,8.20
2023-03-10T04:42:00.585Z,8.10
2023-03-10T04:42:33.046Z,7.40
2023-03-10T04:43:05.542Z,8.20
2023-03-10T04:43:37.993Z,8.00
2023-03-10T04:44:24.372Z,7.30
2023-03-10T04:44:42.951Z,7.50
2023-03-10T04:45:15.396Z,8.30
2023-03-10T04:45:47.857Z,8.00
2023-03-10T04:46:20.388Z,7.10
2023-03-10T04:46:52.831Z,7.30
2023-03-10T04:47:25.317Z,7.50
2023-03-10T04:47:57.759Z,8.40
2023-03-10T04:48:30.277Z,8.10
2023-03-10T04:49:02.705Z,8.00
2023-03-10T04:49:35.175Z,7.90
2023-03-10T04:50:07.649Z,7.20
2023-03-10T04:50:40.128Z,6.80
2023-03-10T04:51:12.585Z,7.40
2023-03-10T04:51:45.089Z,7.10
2023-03-10T04:52:17.552Z,6.70
2023-03-10T04:52:50.068Z,7.40
2023-03-10T04:53:22.506Z,8.30
2023-03-10T04:53:54.984Z,7.20
2023-03-10T04:54:27.474Z,7.00
2023-03-10T04:54:59.950Z,7.60
2023-03-10T04:55:32.430Z,7.80
2023-03-10T04:56:04.952Z,7.90
2023-03-10T04:56:37.424Z,7.70
2023-03-10T04:57:09.878Z,7.60
2023-03-10T04:57:42.362Z,7.40
2023-03-10T04:58:14.851Z,7.50
2023-03-10T04:58:47.336Z,8.00
2023-03-10T04:59:19.787Z,7.90
2023-03-10T04:59:52.277Z,7.70
2023-03-10T05:00:24.829Z,8.00
2023-03-10T05:01:03.085Z,7.90
2023-03-10T05:01:29.695Z,8.10
2023-03-10T05:02:02.227Z,7.30
2023-03-10T05:02:34.628Z,7.40
2023-03-10T05:03:07.090Z,8.20
2023-03-10T05:03:39.666Z,7.80
2023-03-10T05:04:12.136Z,7.50
2023-03-10T05:04:44.681Z,7.90
2023-03-10T05:05:17.067Z,8.40
2023-03-10T05:05:49.525Z,8.30
2023-03-10T05:06:21.989Z,8.80
2023-03-10T05:06:54.461Z,8.20
2023-03-10T05:07:26.926Z,7.50
2023-03-10T05:07:59.380Z,7.90
2023-03-10T05:08:31.932Z,8.10
2023-03-10T05:09:04.380Z,8.40
2023-03-10T05:09:36.896Z,8.50
2023-03-10T05:10:09.361Z,8.60
2023-03-10T05:10:41.819Z,8.30
2023-03-10T05:11:14.317Z,7.80
2023-03-10T05:11:46.781Z,7.50
2023-03-10T05:12:19.248Z,8.70
2023-03-10T05:12:51.699Z,8.80
2023-03-10T05:13:24.165Z,7.80
2023-03-10T05:13:56.620Z,7.60
2023-03-10T05:14:29.083Z,8.70
2023-03-10T05:15:01.548Z,9.00
2023-03-10T05:15:34.027Z,8.90
2023-03-10T05:16:06.499Z,8.70
2023-03-10T05:16:38.952Z,8.80
2023-03-10T05:17:11.407Z,8.00
2023-03-10T05:17:43.869Z,7.80
2023-03-10T05:18:16.345Z,8.20
2023-03-10T05:18:48.796Z,8.40
2023-03-10T05:19:21.250Z,7.90
2023-03-10T05:19:53.708Z,7.20
2023-03-10T05:20:26.196Z,8.30
2023-03-10T05:20:58.654Z,9.00
2023-03-10T05:21:31.111Z,8.50
2023-03-10T05:22:03.570Z,8.40
2023-03-10T05:22:36.057Z,8.50
2023-03-10T05:23:08.536Z,8.10
2023-03-10T05:23:41.019Z,7.40
2023-03-10T05:24:13.463Z,7.80
2023-03-10T05:24:45.968Z,8.40
2023-03-10T05:25:18.472Z,8.30
2023-03-10T05:25:50.928Z,9.10
2023-03-10T05:26:23.418Z,9.00
2023-03-10T05:26:55.913Z,9.30
2023-03-10T05:27:28.390Z,10.00
2023-03-10T05:28:00.859Z,8.90
2023-03-10T05:28:33.325Z,9.10
2023-03-10T05:29:05.784Z,9.60
2023-03-10T05:29:38.245Z,8.70
2023-03-10T05:30:10.695Z,8.70
2023-03-10T05:30:43.165Z,8.80
2023-03-10T05:31:15.773Z,8.50
2023-03-10T05:31:48.331Z,8.80
2023-03-10T05:32:20.691Z,8.90
2023-03-10T05:32:53.178Z,8.90
2023-03-10T05:33:25.581Z,9.90
2023-03-10T05:33:58.081Z,8.80
2023-03-10T05:34:30.550Z,8.50
2023-03-10T05:35:03.075Z,8.30
2023-03-10T05:35:35.616Z,8.10
2023-03-10T05:36:08.176Z,9.00
2023-03-10T05:36:40.517Z,8.60
2023-03-10T05:37:13.067Z,8.60
2023-03-10T05:37:45.541Z,9.30
2023-03-10T05:38:18.021Z,8.30
2023-03-10T05:38:50.466Z,8.20
2023-03-10T05:39:22.937Z,8.70
2023-03-10T05:39:55.425Z,8.50
2023-03-10T05:40:27.904Z,9.10
2023-03-10T05:41:00.413Z,8.90
2023-03-10T05:41:32.874Z,8.40
2023-03-10T05:42:05.349Z,8.80
2023-03-10T05:42:48.499Z,8.60
2023-03-10T05:43:20.952Z,10.30
2023-03-10T05:43:53.392Z,9.90
2023-03-10T05:44:25.884Z,8.30
2023-03-10T05:44:58.378Z,8.10
2023-03-10T05:45:30.861Z,7.80
2023-03-10T05:46:03.373Z,8.50
2023-03-10T05:46:35.925Z,8.90
2023-03-10T05:47:09.280Z,8.90
2023-03-10T05:47:41.890Z,9.60
2023-03-10T05:48:14.380Z,9.50
2023-03-10T05:48:46.833Z,8.30
2023-03-10T05:49:19.388Z,8.50
2023-03-10T05:49:51.849Z,9.30
2023-03-10T05:50:24.353Z,9.00
2023-03-10T05:50:56.823Z,9.20
2023-03-10T05:51:29.349Z,8.60
2023-03-10T05:52:01.769Z,8.60
2023-03-10T05:52:34.238Z,9.20
2023-03-10T05:53:06.712Z,9.60
2023-03-10T05:53:39.164Z,10.10
2023-03-10T05:54:11.597Z,9.60
2023-03-10T05:54:44.038Z,9.40
2023-03-10T05:55:16.504Z,8.80
2023-03-10T05:55:48.934Z,8.30
2023-03-10T05:56:21.396Z,9.40
2023-03-10T05:56:53.816Z,8.50
2023-03-10T05:57:26.307Z,7.60
2023-03-10T05:57:58.763Z,7.90
2023-03-10T05:58:31.223Z,8.10
2023-03-10T05:59:03.644Z,8.60
2023-03-10T05:59:36.101Z,8.70
2023-03-10T06:00:08.558Z,8.90
2023-03-10T06:00:41.047Z,9.10
2023-03-10T06:01:13.685Z,9.90
2023-03-10T06:01:45.970Z,9.40
2023-03-10T06:02:18.417Z,8.80
2023-03-10T06:02:50.911Z,9.50
2023-03-10T06:03:23.520Z,8.90
2023-03-10T06:03:55.982Z,8.20
2023-03-10T06:04:28.514Z,8.80
2023-03-10T06:05:00.966Z,8.60
2023-03-10T06:05:33.439Z,9.00
2023-03-10T06:06:05.905Z,10.60
2023-03-10T06:06:38.376Z,9.90
2023-03-10T06:07:10.820Z,8.60
2023-03-10T06:07:43.315Z,9.40
2023-03-10T06:08:15.752Z,10.00
2023-03-10T06:08:48.184Z,9.30
2023-03-10T06:09:20.601Z,8.80
2023-03-10T06:09:53.067Z,8.60
2023-03-10T06:10:25.518Z,8.60
2023-03-10T06:10:57.983Z,9.20
2023-03-10T06:11:30.460Z,9.00
2023-03-10T06:12:02.911Z,9.00
2023-03-10T06:12:35.374Z,9.60
2023-03-10T06:13:07.816Z,10.00
2023-03-10T06:13:40.324Z,9.90
2023-03-10T06:14:12.821Z,8.90
2023-03-10T06:14:45.301Z,8.40
2023-03-10T06:15:17.765Z,8.20
2023-03-10T06:15:50.310Z,8.00
2023-03-10T06:16:22.808Z,8.80
2023-03-10T06:16:55.302Z,8.60
2023-03-10T06:17:27.815Z,9.20
2023-03-10T06:18:00.329Z,9.80
2023-03-10T06:18:32.846Z,10.30
2023-03-10T06:19:05.320Z,9.30
2023-03-10T06:19:37.795Z,9.60
2023-03-10T06:20:10.316Z,10.10
2023-03-10T06:20:42.760Z,8.70
2023-03-10T06:21:15.195Z,8.50
2023-03-10T06:21:47.665Z,10.40
2023-03-10T06:22:20.148Z,9.40
2023-03-10T06:22:52.636Z,8.50
2023-03-10T06:23:25.083Z,9.00
2023-03-10T06:23:57.577Z,8.80
2023-03-10T06:24:30.056Z,9.50
2023-03-10T06:25:02.502Z,9.80
2023-03-10T06:25:34.962Z,8.80
2023-03-10T06:26:07.388Z,8.60
2023-03-10T06:26:39.856Z,9.20
2023-03-10T06:27:12.299Z,9.50
2023-03-10T06:27:44.766Z,10.10
2023-03-10T06:28:17.211Z,9.60
2023-03-10T06:28:49.699Z,8.80
2023-03-10T06:29:22.187Z,8.10
2023-03-10T06:29:54.617Z,8.30
2023-03-10T06:30:27.070Z,9.50
2023-03-10T06:30:59.508Z,9.50
2023-03-10T06:31:31.989Z,9.60
2023-03-10T06:32:04.457Z,9.40
2023-03-10T06:32:36.918Z,9.80
2023-03-10T06:33:09.372Z,9.70
2023-03-10T06:33:41.829Z,9.50
2023-03-10T06:34:14.284Z,9.40
2023-03-10T06:34:47.415Z,9.60
2023-03-10T06:35:19.869Z,10.00
2023-03-10T06:35:52.392Z,9.70
2023-03-10T06:36:24.812Z,10.00
2023-03-10T06:36:57.254Z,9.60
2023-03-10T06:37:29.742Z,8.80
2023-03-10T06:38:02.192Z,9.30
2023-03-10T06:38:34.672Z,9.70
2023-03-10T06:39:07.139Z,10.40
2023-03-10T06:39:39.636Z,10.60
2023-03-10T06:40:12.149Z,10.10
2023-03-10T06:40:44.645Z,9.50
2023-03-10T06:41:17.106Z,10.20
2023-03-10T06:41:49.591Z,10.00
2023-03-10T06:42:22.116Z,10.20
2023-03-10T06:42:54.577Z,10.30
2023-03-10T06:43:27.046Z,10.30
2023-03-10T06:44:00.275Z,10.00
2023-03-10T06:44:32.741Z,9.70
2023-03-10T06:45:05.216Z,10.20
2023-03-10T06:45:37.713Z,10.10
2023-03-10T06:46:10.214Z,9.20
2023-03-10T06:46:42.692Z,10.10
2023-03-10T06:47:15.154Z,10.50
2023-03-10T06:47:47.594Z,10.10
2023-03-10T06:48:20.050Z,9.10
2023-03-10T06:48:52.497Z,9.30
2023-03-10T06:49:24.924Z,9.90
2023-03-10T06:49:57.354Z,10.50
2023-03-10T06:50:31.551Z,9.80
2023-03-10T06:51:02.310Z,9.80
2023-03-10T06:51:34.794Z,10.40
2023-03-10T06:52:07.288Z,9.50
2023-03-10T06:52:39.825Z,9.70
2023-03-10T06:53:12.319Z,9.40
2023-03-10T06:53:44.782Z,9.30
2023-03-10T06:54:17.222Z,9.70
2023-03-10T06:54:49.698Z,10.30
2023-03-10T06:55:22.189Z,10.00
2023-03-10T06:55:54.657Z,9.20
2023-03-10T06:56:27.126Z,9.80
2023-03-10T06:56:59.637Z,9.50
2023-03-10T06:57:32.136Z,8.50
2023-03-10T06:58:04.610Z,9.20
2023-03-10T06:58:37.115Z,9.20
2023-03-10T06:59:09.566Z,9.70
2023-03-10T06:59:42.051Z,9.30
2023-03-10T07:00:14.536Z,8.60
2023-03-10T07:00:47.023Z,8.70
2023-03-10T07:01:19.522Z,8.60
2023-03-10T07:01:51.959Z,9.00
2023-03-10T07:02:24.412Z,9.00
2023-03-10T07:02:56.857Z,9.30
2023-03-10T07:03:29.348Z,9.80
2023-03-10T07:04:01.775Z,8.70
2023-03-10T07:04:34.285Z,8.40
2023-03-10T07:05:06.779Z,8.80
2023-03-10T07:05:39.149Z,8.80
2023-03-10T07:06:11.610Z,9.10
2023-03-10T07:06:44.086Z,9.30
2023-03-10T07:07:16.581Z,9.20
2023-03-10T07:07:49.054Z,9.80